Time;durP1;ratioP1;P1;durP2;ratioP2;P2;SDS_P1;SDS_P2;PMS_P1;PMS_P2;Temp;Humidity;BMP_temperature;BMP_pressure;BME280_temperature;BME280_humidity;BME280_pressure;Samples;Min_cycle;Max_cycle;Signal;HPM_P1;HPM_P2
2022/11/05 00:09:41;;;;;;;38.57;20.30;;;;;;;-141.28;100.00;49590.31;5113501;28;20210;-75
2022/11/05 00:17:40;;;;;;;35.93;19.37;;;;;;;-141.28;100.00;49560.88;5113338;28;20226;-75
2022/11/05 00:20:10;;;;;;;35.90;19.60;;;;;;;-141.28;100.00;49509.88;5112814;28;20199;-78
2022/11/05 00:25:23;;;;;;;40.30;20.93;;;;;;;-141.28;100.00;49525.56;5113138;28;20234;-78
2022/11/05 00:27:52;;;;;;;35.37;20.60;;;;;;;-141.28;100.00;49494.16;5112999;28;20199;-77
2022/11/05 00:30:20;;;;;;;38.63;19.87;;;;;;;-141.28;100.00;49466.69;5113062;28;20203;-79
2022/11/05 00:32:49;;;;;;;36.23;20.10;;;;;;;-141.28;100.00;49466.69;5112690;28;20237;-77
2022/11/05 00:35:17;;;;;;;34.57;20.63;;;;;;;-141.28;100.00;49470.63;5113008;28;20305;-76
2022/11/05 00:37:47;;;;;;;33.10;19.00;;;;;;;-141.28;100.00;49439.22;5112596;28;20227;-77
2022/11/05 00:40:14;;;;;;;42.93;20.63;;;;;;;-141.28;100.00;49445.13;5113204;28;20200;-78
2022/11/05 00:45:27;;;;;;;39.83;20.70;;;;;;;-141.28;100.00;49478.47;5112744;28;20209;-77
2022/11/05 00:50:44;;;;;;;40.00;20.93;;;;;;;-141.28;100.00;49478.47;5052426;28;20204;-77
2022/11/05 00:53:13;;;;;;;35.87;19.77;;;;;;;-141.28;100.00;49443.16;5104938;28;20258;-78
2022/11/05 00:55:41;;;;;;;39.43;20.93;;;;;;;-141.28;100.00;49431.38;5106604;28;20653;-79
2022/11/05 00:58:13;;;;;;;35.63;20.00;;;;;;;-141.28;100.00;49419.59;5105534;28;20230;-78
2022/11/05 01:00:45;;;;;;;36.57;19.80;;;;;;;-141.28;100.00;49468.66;5099618;28;20199;-76
2022/11/05 01:03:15;;;;;;;36.30;20.13;;;;;;;-141.28;100.00;49458.84;5111949;28;20750;-77
2022/11/05 01:05:44;;;;;;;34.37;19.57;;;;;;;-141.28;100.00;49474.53;5113246;28;20213;-76
2022/11/05 01:08:13;;;;;;;36.63;19.47;;;;;;;-141.28;100.00;49488.28;5114577;28;20241;-77
2022/11/05 01:10:41;;;;;;;36.23;20.63;;;;;;;-141.28;100.00;49470.63;5111385;28;20551;-76
2022/11/05 01:13:08;;;;;;;36.93;21.37;;;;;;;-141.28;100.00;49454.94;5112279;28;20214;-77
2022/11/05 01:15:36;;;;;;;43.17;21.17;;;;;;;-141.28;100.00;49454.94;5099289;28;20234;-78
2022/11/05 01:18:03;;;;;;;36.60;19.90;;;;;;;-141.28;100.00;49427.44;5111958;28;20309;-78
2022/11/05 01:20:32;;;;;;;38.13;22.00;;;;;;;-141.28;100.00;49419.59;5099730;28;20681;-79
2022/11/05 01:22:59;;;;;;;37.37;22.03;;;;;;;-141.28;100.00;49431.38;5112655;28;20589;-76
2022/11/05 01:25:27;;;;;;;40.67;21.90;;;;;;;-141.28;100.00;49431.38;5112403;28;20195;-75
2022/11/05 01:27:55;;;;;;;41.93;21.17;;;;;;;-141.28;100.00;49415.69;5111953;28;20199;-76
2022/11/05 01:30:22;;;;;;;36.70;20.33;;;;;;;-141.28;100.00;49415.69;5112242;28;20194;-75
2022/11/05 01:32:49;;;;;;;36.17;20.23;;;;;;;-141.28;100.00;49423.53;5111997;28;20206;-76
2022/11/05 01:35:17;;;;;;;40.27;20.67;;;;;;;-141.28;100.00;49419.59;5111975;28;20195;-78
2022/11/05 01:37:44;;;;;;;34.97;20.50;;;;;;;-141.28;100.00;49403.91;5111612;28;20237;-78
2022/11/05 01:40:13;;;;;;;37.13;21.17;;;;;;;-141.28;100.00;49396.06;5112211;28;20242;-77
2022/11/05 01:42:41;;;;;;;38.00;21.37;;;;;;;-141.28;100.00;49415.69;5111743;28;20256;-75
2022/11/05 01:45:13;;;;;;;35.43;20.87;;;;;;;-141.28;100.00;49411.75;5111940;28;20206;-78
2022/11/05 01:47:50;;;;;;;46.37;22.10;;;;;;;-141.28;100.00;49392.13;5116597;28;20286;-75
2022/11/05 01:50:30;;;;;;;37.13;21.60;;;;;;;-141.28;100.00;49399.97;5117560;28;20202;-75
2022/11/05 01:53:03;;;;;;;37.50;20.63;;;;;;;-141.28;100.00;49386.25;5100813;28;20210;-76
2022/11/05 01:55:34;;;;;;;37.87;21.73;;;;;;;-141.28;100.00;49390.16;5098293;28;20665;-76
2022/11/05 01:58:06;;;;;;;35.13;21.87;;;;;;;-141.28;100.00;49364.66;5111828;28;20312;-77
2022/11/05 02:00:34;;;;;;;42.97;21.70;;;;;;;-141.28;100.00;49372.50;5098358;28;20211;-77
2022/11/05 02:03:02;;;;;;;39.20;20.73;;;;;;;-141.28;100.00;49364.66;5112089;28;20649;-77
2022/11/05 02:05:31;;;;;;;36.17;21.97;;;;;;;-141.28;100.00;49348.97;5098433;28;20246;-76
2022/11/05 02:07:58;;;;;;;38.77;21.53;;;;;;;-141.28;100.00;49360.75;5111520;28;20218;-79
2022/11/05 02:10:25;;;;;;;39.63;21.50;;;;;;;-141.28;100.00;49341.13;5111724;28;20199;-75
2022/11/05 02:12:52;;;;;;;38.17;22.03;;;;;;;-141.28;100.00;49370.53;5111562;28;20237;-76
2022/11/05 02:15:30;;;;;;;43.00;22.03;;;;;;;-141.28;100.00;49376.44;5113212;28;20234;-75
2022/11/05 02:18:19;;;;;;;42.37;21.70;;;;;;;-141.28;100.00;49392.13;5112480;28;20227;-78
2022/11/05 02:20:56;;;;;;;40.77;20.77;;;;;;;-141.28;100.00;49386.25;5111747;28;20567;-75
2022/11/05 02:23:54;;;;;;;37.17;21.53;;;;;;;-141.28;100.00;49403.91;5103455;28;20224;-75
2022/11/05 02:26:54;;;;;;;41.73;21.27;;;;;;;-141.28;100.00;49399.97;5116986;28;20348;-77
2022/11/05 02:29:54;;;;;;;36.90;21.87;;;;;;;-141.28;100.00;49403.91;5115529;28;20271;-79
2022/11/05 02:32:37;;;;;;;43.40;22.13;;;;;;;-141.28;100.00;49403.91;5117448;28;20203;-78
2022/11/05 02:35:18;;;;;;;38.03;21.40;;;;;;;-141.28;100.00;49394.09;5120939;28;20202;-75
2022/11/05 02:37:51;;;;;;;41.77;21.47;;;;;;;-141.28;100.00;49368.59;5116080;28;20230;-74
2022/11/05 02:40:24;;;;;;;37.40;21.97;;;;;;;-141.28;100.00;49376.44;5115603;28;20203;-78
2022/11/05 02:42:58;;;;;;;41.63;22.27;;;;;;;-141.28;100.00;49376.44;5102323;28;20210;-79
2022/11/05 02:45:38;;;;;;;42.50;21.90;;;;;;;-141.28;100.00;49376.44;5114883;28;20225;-76
2022/11/05 02:48:13;;;;;;;42.80;21.73;;;;;;;-141.28;100.00;49368.59;5115356;28;20625;-76
2022/11/05 02:50:49;;;;;;;37.10;21.30;;;;;;;-141.28;100.00;49384.28;5115041;28;20622;-77
2022/11/05 02:53:23;;;;;;;33.83;21.10;;;;;;;-141.28;100.00;49392.13;5105822;28;20219;-79
2022/11/05 02:55:58;;;;;;;35.60;22.07;;;;;;;-141.28;100.00;49399.97;5114755;28;20200;-75
2022/11/05 02:58:27;;;;;;;35.93;20.60;;;;;;;-141.28;100.00;49403.91;5114737;28;20336;-76
2022/11/05 03:00:55;;;;;;;36.20;20.67;;;;;;;-141.28;100.00;49403.91;5115513;28;20203;-77
2022/11/05 03:03:29;;;;;;;38.23;21.43;;;;;;;-141.28;100.00;49407.84;5113350;28;20210;-78
2022/11/05 03:06:17;;;;;;;41.53;22.20;;;;;;;-141.28;100.00;49396.06;5114646;28;20731;-78
2022/11/05 03:08:59;;;;;;;38.07;22.30;;;;;;;-141.28;100.00;49419.59;5114785;28;20226;-79
2022/11/05 03:11:28;;;;;;;35.67;21.17;;;;;;;-141.28;100.00;49401.94;5114457;28;20284;-75
2022/11/05 03:14:05;;;;;;;36.37;21.90;;;;;;;-141.28;100.00;49403.91;5114891;28;20206;-75
2022/11/05 03:16:39;;;;;;;44.00;21.33;;;;;;;-141.28;100.00;49425.50;5114769;28;20253;-76
2022/11/05 03:19:13;;;;;;;38.33;21.47;;;;;;;-141.28;100.00;49411.75;5114614;28;20199;-78
2022/11/05 03:21:45;;;;;;;35.23;20.77;;;;;;;-141.28;100.00;49435.31;5114590;28;20211;-76
2022/11/05 03:24:17;;;;;;;38.13;21.70;;;;;;;-141.28;100.00;49443.16;5114507;28;20252;-78
2022/11/05 03:26:51;;;;;;;35.60;21.80;;;;;;;-141.28;100.00;49443.16;5113167;28;20215;-74
2022/11/05 03:29:22;;;;;;;36.23;21.60;;;;;;;-141.28;100.00;49445.13;5114302;28;20202;-78
2022/11/05 03:31:52;;;;;;;34.43;21.03;;;;;;;-141.28;100.00;49443.16;5114446;28;20195;-76
2022/11/05 03:34:26;;;;;;;33.73;20.57;;;;;;;-141.28;100.00;49447.06;5113169;28;20699;-77
2022/11/05 03:36:57;;;;;;;38.83;20.60;;;;;;;-141.28;100.00;49447.06;5113623;28;20263;-75
2022/11/05 03:39:29;;;;;;;41.67;22.23;;;;;;;-141.28;100.00;49437.25;5114196;28;20256;-79
2022/11/05 03:41:57;;;;;;;38.17;21.87;;;;;;;-141.28;100.00;49419.59;5118964;28;20199;-77
2022/11/05 03:44:28;;;;;;;42.70;22.70;;;;;;;-141.28;100.00;49376.44;5114570;28;20225;-79
2022/11/05 03:47:00;;;;;;;37.53;21.77;;;;;;;-141.28;100.00;49409.78;5101915;28;20210;-77
2022/11/05 03:49:33;;;;;;;36.23;22.60;;;;;;;-141.28;100.00;49419.59;5114056;28;20195;-78
2022/11/05 03:52:07;;;;;;;38.97;21.57;;;;;;;-141.28;100.00;49423.53;5113614;28;20214;-76
2022/11/05 03:54:34;;;;;;;35.90;21.73;;;;;;;-141.28;100.00;49423.53;5113992;28;20207;-76
2022/11/05 03:57:06;;;;;;;34.43;21.43;;;;;;;-141.28;100.00;49417.63;5113787;28;20199;-76
2022/11/05 03:59:40;;;;;;;36.50;22.10;;;;;;;-141.28;100.00;49431.38;5113741;28;20225;-78
2022/11/05 04:02:08;;;;;;;37.40;21.60;;;;;;;-141.28;100.00;49437.25;5112735;28;20194;-76
2022/11/05 04:04:36;;;;;;;39.97;21.30;;;;;;;-141.28;100.00;49451.00;5113114;28;20199;-77
2022/11/05 04:15:15;;;;;;;34.30;20.97;;;;;;;-141.28;100.00;49466.69;5102338;28;20241;-76
2022/11/05 04:17:41;;;;;;;38.20;21.60;;;;;;;-141.28;100.00;49437.25;5113339;28;20233;-76
2022/11/05 04:25:44;;;;;;;42.77;21.73;;;;;;;-141.28;100.00;49494.16;5113079;28;20210;-75
2022/11/05 04:28:12;;;;;;;38.87;21.60;;;;;;;-141.28;100.00;49445.13;5113426;28;20615;-77
2022/11/05 04:30:38;;;;;;;44.00;21.07;;;;;;;-141.28;100.00;49439.22;5113362;28;20338;-80
2022/11/05 04:33:07;;;;;;;42.23;21.13;;;;;;;-141.28;100.00;49421.56;5113042;28;20610;-76
2022/11/05 04:35:37;;;;;;;39.23;22.53;;;;;;;-141.28;100.00;49431.38;5113323;28;20198;-76
2022/11/05 04:38:05;;;;;;;61.43;23.53;;;;;;;-141.28;100.00;49431.38;5112612;28;20727;-77
2022/11/05 04:40:32;;;;;;;55.23;25.23;;;;;;;-141.28;100.00;49458.84;5113134;28;20199;-75
2022/11/05 04:42:59;;;;;;;49.47;25.60;;;;;;;-141.28;100.00;49458.84;5112977;28;20279;-76
2022/11/05 04:45:28;;;;;;;42.60;23.70;;;;;;;-141.28;100.00;49454.94;5112718;28;20664;-76
2022/11/05 04:47:55;;;;;;;41.13;22.83;;;;;;;-141.28;100.00;49451.00;5112631;28;20255;-75
2022/11/05 04:50:23;;;;;;;40.00;23.23;;;;;;;-141.28;100.00;49447.06;5112631;28;20556;-76
2022/11/05 04:52:52;;;;;;;45.73;23.17;;;;;;;-141.28;100.00;49464.72;5112474;28;20198;-78
2022/11/05 04:55:19;;;;;;;39.90;22.13;;;;;;;-141.28;100.00;49458.84;5112728;28;20214;-76
2022/11/05 04:57:49;;;;;;;35.27;22.50;;;;;;;-141.28;100.00;49445.13;5112474;28;20701;-76
2022/11/05 05:00:18;;;;;;;39.57;24.40;;;;;;;-141.28;100.00;49466.69;5115494;28;20248;-76
2022/11/05 05:02:46;;;;;;;35.97;22.37;;;;;;;-141.28;100.00;49480.44;5101860;28;20207;-78
2022/11/05 05:05:14;;;;;;;45.97;23.73;;;;;;;-141.28;100.00;49474.53;5109609;28;20588;-81
2022/11/05 05:07:41;;;;;;;45.63;24.53;;;;;;;-141.28;100.00;49488.28;5112332;28;20649;-76
2022/11/05 05:10:10;;;;;;;41.60;24.27;;;;;;;-141.28;100.00;49490.25;5112513;28;20588;-80
2022/11/05 05:12:37;;;;;;;48.37;24.57;;;;;;;-141.28;100.00;49502.03;5112729;28;20211;-76
2022/11/05 05:15:05;;;;;;;43.60;24.20;;;;;;;-141.28;100.00;49529.50;5111918;28;20304;-79
2022/11/05 05:17:32;;;;;;;46.33;25.27;;;;;;;-141.28;100.00;49498.09;5112204;28;20684;-76
2022/11/05 05:22:44;;;;;;;45.47;23.67;;;;;;;-141.28;100.00;49525.56;5112077;28;20225;-78
2022/11/05 05:25:12;;;;;;;47.10;24.93;;;;;;;-141.28;100.00;49556.97;5112236;28;20202;-77
2022/11/05 05:27:39;;;;;;;43.50;24.67;;;;;;;-141.28;100.00;49576.59;5114537;28;20211;-75
2022/11/05 05:30:07;;;;;;;45.57;24.80;;;;;;;-141.28;100.00;49604.06;5118350;28;20203;-75
2022/11/05 05:32:34;;;;;;;44.37;24.93;;;;;;;-141.28;100.00;49623.69;5111897;28;20659;-77
2022/11/05 05:35:01;;;;;;;51.27;27.57;;;;;;;-141.28;100.00;49686.47;5103257;28;20696;-77
2022/11/05 05:37:28;;;;;;;43.00;24.03;;;;;;;-141.28;100.00;49690.41;5107636;28;20206;-76
2022/11/05 05:39:55;;;;;;;42.83;22.47;;;;;;;-141.28;100.00;49751.25;5112296;28;20199;-77
2022/11/05 05:42:25;;;;;;;40.17;23.33;;;;;;;-141.28;100.00;49761.06;5111451;28;20212;-77
2022/11/05 05:44:52;;;;;;;40.97;23.93;;;;;;;-141.28;100.00;49816.00;5111687;28;20276;-79
2022/11/05 05:47:21;;;;;;;43.90;22.93;;;;;;;-141.28;100.00;49894.50;5111907;28;20677;-79
2022/11/05 05:49:48;;;;;;;43.03;23.77;;;;;;;-141.28;100.00;49908.25;5111854;28;20202;-75
2022/11/05 05:52:15;;;;;;;43.67;22.73;;;;;;;-141.28;100.00;49929.81;5111658;28;20199;-75
2022/11/05 05:54:42;;;;;;;42.70;23.47;;;;;;;-141.28;100.00;49994.59;5111827;28;20199;-75
2022/11/05 05:57:09;;;;;;;42.77;22.53;;;;;;;-141.28;100.00;50016.19;5113220;28;20203;-76
2022/11/05 05:59:38;;;;;;;43.60;24.17;;;;;;;-141.28;100.00;50035.81;5116124;28;20237;-76
2022/11/05 06:02:05;;;;;;;40.53;23.40;;;;;;;-141.28;100.00;50035.81;5114935;28;20206;-76
2022/11/05 06:04:31;;;;;;;42.30;24.37;;;;;;;-141.28;100.00;49992.63;5115493;28;20198;-75
2022/11/05 06:06:59;;;;;;;39.90;24.53;;;;;;;-141.28;100.00;49959.25;5116184;28;20692;-77
2022/11/05 06:09:26;;;;;;;49.53;26.97;;;;;;;-141.28;100.00;49937.69;5115933;28;20199;-78
2022/11/05 06:11:53;;;;;;;48.47;26.43;;;;;;;-141.28;100.00;49888.63;5115863;28;20202;-76
2022/11/05 06:14:20;;;;;;;44.73;25.37;;;;;;;-141.28;100.00;49863.09;5115547;28;20198;-77
2022/11/05 06:16:48;;;;;;;43.17;24.73;;;;;;;-141.28;100.00;49869.00;5117078;28;20261;-76
2022/11/05 06:19:15;;;;;;;45.50;25.70;;;;;;;-141.28;100.00;49819.94;5116380;28;20227;-79
2022/11/05 06:21:42;;;;;;;45.80;24.90;;;;;;;-141.28;100.00;49768.91;5115671;28;20642;-75
2022/11/05 06:24:10;;;;;;;43.30;22.77;;;;;;;-141.28;100.00;49788.53;5115198;28;20195;-76
2022/11/05 06:26:41;;;;;;;39.43;22.60;;;;;;;-141.28;100.00;49808.16;5117504;28;20746;-75
2022/11/05 06:29:08;;;;;;;36.17;22.30;;;;;;;-141.28;100.00;49851.31;5105520;28;20195;-76
2022/11/05 06:31:35;;;;;;;39.00;21.57;;;;;;;-141.28;100.00;49859.19;5116355;28;20199;-79
2022/11/05 06:34:03;;;;;;;38.17;21.53;;;;;;;-141.28;100.00;49814.03;5115445;28;20649;-78
2022/11/05 06:36:30;;;;;;;41.20;21.53;;;;;;;-141.28;100.00;49849.38;5102107;28;20289;-76
2022/11/05 06:38:57;;;;;;;44.50;22.20;;;;;;;-141.28;100.00;49859.19;5116337;28;20260;-77
2022/11/05 06:41:24;;;;;;;43.80;22.33;;;;;;;-141.28;100.00;49823.84;5115250;28;20195;-76
2022/11/05 06:43:51;;;;;;;46.97;23.07;;;;;;;-141.28;100.00;49851.31;5115232;28;20213;-79
2022/11/05 06:46:18;;;;;;;42.97;21.67;;;;;;;-141.28;100.00;49849.38;5102285;28;20199;-78
2022/11/05 06:48:45;;;;;;;42.33;22.77;;;;;;;-141.28;100.00;49869.00;5114855;28;20230;-78
2022/11/05 06:51:16;;;;;;;40.27;22.70;;;;;;;-141.28;100.00;49853.28;5114949;28;20591;-77
2022/11/05 06:53:44;;;;;;;46.43;22.67;;;;;;;-141.28;100.00;49870.94;5114751;28;20260;-78
2022/11/05 06:56:11;;;;;;;40.33;22.23;;;;;;;-141.28;100.00;49855.25;5114702;28;20218;-76
2022/11/05 06:58:38;;;;;;;40.93;22.60;;;;;;;-141.28;100.00;49863.09;5112886;28;20234;-76
2022/11/05 07:01:07;;;;;;;41.87;22.47;;;;;;;-141.28;100.00;49906.28;5101812;28;20199;-79
2022/11/05 07:03:34;;;;;;;34.07;21.03;;;;;;;-141.28;100.00;49988.69;5114511;28;20229;-76
2022/11/05 07:06:03;;;;;;;31.83;21.03;;;;;;;-141.28;100.00;50059.34;5114316;28;20288;-76
2022/11/05 07:08:33;;;;;;;35.93;20.00;;;;;;;-141.28;100.00;50173.19;5114633;28;20323;-79
2022/11/05 07:11:00;;;;;;;34.27;20.50;;;;;;;-141.28;100.00;50232.06;5114113;28;20267;-81
2022/11/05 07:13:27;;;;;;;35.73;20.50;;;;;;;-141.28;100.00;50318.44;5113450;28;20199;-79
2022/11/05 07:15:54;;;;;;;34.60;19.20;;;;;;;-141.28;100.00;50387.13;5114121;28;20653;-78
2022/11/05 07:18:21;;;;;;;43.30;22.30;;;;;;;-141.28;100.00;50471.53;5114193;28;20589;-78
2022/11/05 07:20:49;;;;;;;37.80;21.40;;;;;;;-141.28;100.00;50579.50;5114041;28;20566;-81
2022/11/05 07:23:17;;;;;;;41.57;22.03;;;;;;;-141.28;100.00;50636.41;5114307;28;20203;-78
2022/11/05 07:25:45;;;;;;;37.83;21.10;;;;;;;-141.28;100.00;50565.75;5113372;28;20198;-76
2022/11/05 07:28:13;;;;;;;38.10;21.77;;;;;;;-141.28;100.00;50630.53;5114169;28;20207;-76
2022/11/05 07:30:40;;;;;;;36.67;20.07;;;;;;;-141.28;100.00;50720.81;5113893;28;20199;-76
2022/11/05 07:33:07;;;;;;;33.60;19.73;;;;;;;-141.28;100.00;50801.31;5113999;28;20582;-77
2022/11/05 07:35:34;;;;;;;36.90;19.27;;;;;;;-141.28;100.00;50811.13;5116192;28;20207;-78
2022/11/05 07:38:02;;;;;;;36.30;19.93;;;;;;;-141.28;100.00;50879.84;5113728;28;20206;-78
2022/11/05 07:40:30;;;;;;;33.70;19.90;;;;;;;-141.28;100.00;50868.06;5113662;28;20199;-77
2022/11/05 07:43:00;;;;;;;32.40;19.30;;;;;;;-141.28;100.00;50852.34;5113812;28;20285;-76
2022/11/05 07:45:28;;;;;;;31.47;18.83;;;;;;;-141.28;100.00;50832.72;5113579;28;20203;-79
2022/11/05 07:47:56;;;;;;;31.27;18.67;;;;;;;-141.28;100.00;50775.78;5115192;28;20228;-77
2022/11/05 07:50:25;;;;;;;37.07;19.37;;;;;;;-141.28;100.00;50791.50;5116311;28;20198;-77
2022/11/05 07:52:53;;;;;;;30.70;19.87;;;;;;;-141.28;100.00;50769.91;5105870;28;20198;-77
2022/11/05 07:55:20;;;;;;;34.50;19.93;;;;;;;-141.28;100.00;50828.78;5117428;28;20203;-77
2022/11/05 07:57:49;;;;;;;45.00;19.70;;;;;;;-141.28;100.00;50754.19;5114190;28;20218;-76
2022/11/05 08:00:20;;;;;;;34.40;19.77;;;;;;;-141.28;100.00;50720.81;5113513;28;20234;-76
2022/11/05 08:02:57;;;;;;;33.40;19.80;;;;;;;-141.28;100.00;50632.50;5112223;28;20218;-80
2022/11/05 08:05:24;;;;;;;40.40;19.60;;;;;;;-141.28;100.00;50451.91;5113509;28;20235;-76
2022/11/05 08:07:53;;;;;;;33.87;19.73;;;;;;;-141.28;100.00;50461.72;5113781;28;20287;-76
2022/11/05 08:10:20;;;;;;;30.20;19.70;;;;;;;-141.28;100.00;50546.13;5113655;28;20625;-76
2022/11/05 08:12:47;;;;;;;31.50;19.60;;;;;;;-141.28;100.00;50493.13;5112926;28;20202;-77
2022/11/05 08:15:14;;;;;;;34.47;20.60;;;;;;;-141.28;100.00;50538.28;5113385;28;20271;-76
2022/11/05 08:17:42;;;;;;;36.00;19.70;;;;;;;-141.28;100.00;50620.72;5113400;28;20202;-75
2022/11/05 08:20:10;;;;;;;33.43;20.07;;;;;;;-141.28;100.00;50585.38;5112708;28;20351;-78
2022/11/05 08:22:38;;;;;;;33.63;19.57;;;;;;;-141.28;100.00;50640.34;5112976;28;20199;-79
2022/11/05 08:25:05;;;;;;;30.70;18.83;;;;;;;-141.28;100.00;50593.22;5112950;28;20260;-77
2022/11/05 08:27:32;;;;;;;39.83;19.87;;;;;;;-141.28;100.00;50608.94;5113433;28;20238;-76
2022/11/05 08:30:00;;;;;;;32.60;20.53;;;;;;;-141.28;100.00;50526.50;5113429;28;20260;-76
2022/11/05 08:32:27;;;;;;;34.00;19.40;;;;;;;-141.28;100.00;50512.75;5113140;28;20194;-75
2022/11/05 08:34:57;;;;;;;36.23;18.57;;;;;;;-141.28;100.00;50493.13;5112981;28;20232;-78
2022/11/05 08:37:25;;;;;;;35.87;18.10;;;;;;;-141.28;100.00;50442.09;5112984;28;20569;-76
2022/11/05 08:39:52;;;;;;;27.93;18.13;;;;;;;-141.28;100.00;50385.16;5113908;28;20332;-76
2022/11/05 08:42:19;;;;;;;32.70;18.27;;;;;;;-141.28;100.00;50353.75;5113884;28;20211;-79
2022/11/05 08:44:46;;;;;;;30.10;17.63;;;;;;;-141.28;100.00;50334.13;5113478;28;20211;-78
2022/11/05 08:47:14;;;;;;;38.80;19.47;;;;;;;-141.28;100.00;50212.44;5119164;28;20657;-76
2022/11/05 08:49:40;;;;;;;32.03;17.07;;;;;;;-141.28;100.00;50169.28;5123556;28;20211;-76
2022/11/05 08:52:09;;;;;;;36.20;18.07;;;;;;;-141.28;100.00;50196.75;5120728;28;20203;-76
2022/11/05 08:54:36;;;;;;;36.27;18.30;;;;;;;-141.28;100.00;50137.88;5119299;28;20211;-76
2022/11/05 08:57:04;;;;;;;26.07;16.77;;;;;;;-141.28;100.00;50183.00;5124031;28;20213;-75
2022/11/05 08:59:31;;;;;;;35.33;16.63;;;;;;;-141.28;100.00;50271.31;5122976;28;20234;-74
2022/11/05 09:01:59;;;;;;;28.70;16.03;;;;;;;-141.28;100.00;50522.56;5114260;28;20210;-75
2022/11/05 09:04:26;;;;;;;26.10;15.93;;;;;;;-141.28;100.00;50534.34;5112149;28;20214;-77
2022/11/05 09:06:53;;;;;;;28.10;15.83;;;;;;;-141.28;100.00;50565.75;5112175;28;20259;-76
2022/11/05 09:09:21;;;;;;;29.43;17.07;;;;;;;-141.28;100.00;50526.50;5113013;28;20198;-77
2022/11/05 09:11:48;;;;;;;30.10;15.77;;;;;;;-141.28;100.00;50512.75;5113067;28;20206;-76
2022/11/05 09:14:17;;;;;;;28.47;15.17;;;;;;;-141.28;100.00;50471.53;5113033;28;20202;-77
2022/11/05 09:16:44;;;;;;;30.27;16.43;;;;;;;-141.28;100.00;50444.06;5112804;28;20269;-76
2022/11/05 09:19:12;;;;;;;27.83;15.27;;;;;;;-141.28;100.00;50424.44;5112772;28;20235;-77
2022/11/05 09:21:39;;;;;;;28.43;15.13;;;;;;;-141.28;100.00;50381.25;5112375;28;20665;-79
2022/11/05 09:24:07;;;;;;;22.60;13.93;;;;;;;-141.28;100.00;50569.69;5112338;28;20199;-76
2022/11/05 09:26:35;;;;;;;32.53;14.33;;;;;;;-141.28;100.00;50279.19;5112527;28;20626;-76
2022/11/05 09:29:02;;;;;;;28.70;14.00;;;;;;;-141.28;100.00;50220.28;5112441;28;20276;-79
2022/11/05 09:31:29;;;;;;;24.20;13.80;;;;;;;-141.28;100.00;50200.66;5112375;28;20233;-79
2022/11/05 09:33:57;;;;;;;22.90;14.13;;;;;;;-141.28;100.00;50133.94;5112411;28;20207;-77
2022/11/05 09:36:24;;;;;;;29.70;12.13;;;;;;;-141.28;100.00;50135.91;5112122;28;20206;-77
2022/11/05 09:38:51;;;;;;;27.57;13.40;;;;;;;-141.28;100.00;50161.41;5112785;28;20235;-77
2022/11/05 09:41:28;;;;;;;24.50;13.13;;;;;;;-141.28;100.00;50031.88;5112373;28;20198;-79
2022/11/05 09:44:01;;;;;;;28.07;13.40;;;;;;;-141.28;100.00;50400.88;5112307;28;20203;-79
2022/11/05 09:46:37;;;;;;;26.73;13.07;;;;;;;-141.28;100.00;50239.94;5112489;28;20202;-79
2022/11/05 09:49:12;;;;;;;23.63;13.23;;;;;;;-141.28;100.00;49816.00;5112296;28;20198;-79
2022/11/05 09:51:40;;;;;;;23.47;12.03;;;;;;;-141.28;100.00;49898.44;5112664;28;20239;-75
2022/11/05 09:54:12;;;;;;;23.47;12.77;;;;;;;-141.28;100.00;49902.34;5112340;28;20601;-79
2022/11/05 09:56:42;;;;;;;25.60;12.30;;;;;;;-141.28;100.00;49659.00;5112307;28;20652;-77
2022/11/05 09:59:18;;;;;;;22.20;11.97;;;;;;;-141.28;100.00;49521.63;5111869;28;20230;-79
2022/11/05 10:01:46;;;;;;;20.83;12.30;;;;;;;-141.28;100.00;49415.69;5113373;28;20206;-78
2022/11/05 10:04:18;;;;;;;25.23;13.20;;;;;;;-141.28;100.00;49633.50;5112278;28;20250;-78
2022/11/05 10:06:48;;;;;;;23.07;12.63;;;;;;;-141.28;100.00;49631.53;5112005;28;20206;-80
2022/11/05 10:09:23;;;;;;;26.30;11.63;;;;;;;-141.28;100.00;49482.41;5112965;28;20268;-78
2022/11/05 10:11:54;;;;;;;18.60;10.77;;;;;;;-141.28;100.00;49378.41;5112016;28;20610;-77
2022/11/05 10:14:27;;;;;;;21.10;11.93;;;;;;;-141.28;100.00;49343.06;5111069;28;20638;-76
2022/11/05 10:17:00;;;;;;;22.87;12.27;;;;;;;-141.28;100.00;49380.34;5111217;28;20238;-78
2022/11/05 10:19:35;;;;;;;17.90;11.97;;;;;;;-141.28;100.00;49372.50;5099182;28;20279;-79
2022/11/05 10:22:10;;;;;;;23.20;12.43;;;;;;;-141.28;100.00;49354.84;5111179;28;20221;-76
2022/11/05 10:24:39;;;;;;;21.20;12.53;;;;;;;-141.28;100.00;49325.41;5110483;28;20236;-80
2022/11/05 10:27:06;;;;;;;28.07;11.57;;;;;;;-141.28;100.00;49354.84;5111295;28;20232;-77
2022/11/05 10:29:35;;;;;;;24.07;12.03;;;;;;;-141.28;100.00;49505.94;5111505;28;20301;-77
2022/11/05 10:32:06;;;;;;;23.53;11.93;;;;;;;-141.28;100.00;49527.53;5111060;28;20199;-77
2022/11/05 10:34:38;;;;;;;17.17;10.90;;;;;;;-141.28;100.00;49474.53;5111442;28;20199;-78
2022/11/05 10:37:05;;;;;;;19.63;11.80;;;;;;;-141.28;100.00;49498.09;5111231;28;20203;-77
2022/11/05 10:39:33;;;;;;;18.37;11.13;;;;;;;-141.28;100.00;49588.34;5110992;28;20223;-79
2022/11/05 10:42:17;;;;;;;22.83;11.93;;;;;;;-141.28;100.00;49521.63;5110956;28;20195;-77
2022/11/05 10:44:53;;;;;;;18.07;11.83;;;;;;;-141.28;100.00;49513.78;5115147;28;20198;-76
2022/11/05 10:47:51;;;;;;;15.67;10.43;;;;;;;-141.28;100.00;49413.72;5118570;28;20252;-76
2022/11/05 10:50:20;;;;;;;23.00;11.87;;;;;;;-141.28;100.00;49352.88;5121268;28;20644;-77
2022/11/05 10:52:57;;;;;;;21.23;12.10;;;;;;;-141.28;100.00;49352.88;5115669;28;20195;-76
2022/11/05 10:55:27;;;;;;;17.47;11.20;;;;;;;-141.28;100.00;49311.69;5116783;28;20195;-77
2022/11/05 10:57:55;;;;;;;25.33;12.90;;;;;;;-141.28;100.00;49280.28;5115689;28;20636;-75
2022/11/05 11:00:38;;;;;;;19.87;11.40;;;;;;;-141.28;100.00;49337.19;5115633;28;20374;-77
2022/11/05 11:03:26;;;;;;;24.63;11.53;;;;;;;-141.28;100.00;49376.44;5113338;28;20199;-76
2022/11/05 11:06:00;;;;;;;20.67;12.17;;;;;;;-141.28;100.00;49368.59;5121465;28;20203;-77
2022/11/05 11:08:27;;;;;;;17.20;10.87;;;;;;;-141.28;100.00;49321.50;5119264;28;20283;-78
2022/11/05 11:10:58;;;;;;;27.93;11.73;;;;;;;-141.28;100.00;49294.03;5115663;28;20203;-79
2022/11/05 11:13:27;;;;;;;23.20;11.67;;;;;;;-141.28;100.00;49195.91;5115423;28;20286;-76
2022/11/05 11:16:12;;;;;;;19.77;12.20;;;;;;;-141.28;100.00;49309.72;5115007;28;20238;-77
2022/11/05 11:18:42;;;;;;;20.00;11.87;;;;;;;-141.28;100.00;49235.16;5115046;28;20222;-80
2022/11/05 11:21:14;;;;;;;23.13;12.87;;;;;;;-141.28;100.00;49211.59;5114576;28;20245;-75
2022/11/05 11:23:43;;;;;;;22.97;12.63;;;;;;;-141.28;100.00;49325.41;5114462;28;20285;-77
2022/11/05 11:26:13;;;;;;;21.57;12.03;;;;;;;-141.28;100.00;49262.63;5115558;28;20631;-79
2022/11/05 11:28:46;;;;;;;18.00;11.77;;;;;;;-141.28;100.00;49358.78;5115964;28;20649;-77
2022/11/05 11:31:17;;;;;;;19.97;12.83;;;;;;;-141.28;100.00;49474.53;5114597;28;20282;-79
2022/11/05 11:33:47;;;;;;;19.20;12.53;;;;;;;-141.28;100.00;49566.78;5114285;28;20207;-81
2022/11/05 11:36:18;;;;;;;18.83;12.13;;;;;;;-141.28;100.00;49502.03;5114155;28;20646;-78
2022/11/05 11:38:47;;;;;;;26.33;12.43;;;;;;;-141.28;100.00;49494.16;5114219;28;20283;-76
2022/11/05 11:41:25;;;;;;;20.87;11.97;;;;;;;-141.28;100.00;49460.81;5113077;28;20299;-77
2022/11/05 11:43:56;;;;;;;21.80;13.10;;;;;;;-141.28;100.00;49488.28;5114106;28;20588;-78
2022/11/05 11:46:32;;;;;;;19.20;11.33;;;;;;;-141.28;100.00;49470.63;5114167;28;20206;-77